createdAt,value
2022-09-12T00:01:51.988Z,101180.47
2022-09-12T00:04:18.669Z,101176.09
2022-09-12T00:06:45.388Z,101183.56
2022-09-12T00:09:13.914Z,101179.06
2022-09-12T00:11:45.871Z,101178.66
2022-09-12T00:14:16.284Z,101175.91
2022-09-12T00:16:43.518Z,101178.16
2022-09-12T00:19:11.312Z,101172.50
2022-09-12T00:21:39.244Z,101179.31
2022-09-12T00:24:06.827Z,101183.53
2022-09-12T00:26:33.785Z,101180.94
2022-09-12T00:29:00.352Z,101190.13
2022-09-12T00:31:27.745Z,101184.72
2022-09-12T00:33:57.413Z,101187.75
2022-09-12T00:36:25.783Z,101187.38
2022-09-12T00:38:53.542Z,101183.25
2022-09-12T00:41:23.143Z,101185.06
2022-09-12T00:44:16.211Z,101187.13
2022-09-12T00:46:47.152Z,101182.50
2022-09-12T00:49:17.098Z,101184.44
2022-09-12T00:51:51.596Z,101187.50
2022-09-12T00:54:24.219Z,101179.84
2022-09-12T00:56:53.780Z,101183.44
2022-09-12T00:59:25.670Z,101181.69
2022-09-12T01:01:53.029Z,101177.84
2022-09-12T01:04:23.595Z,101178.53
2022-09-12T01:06:51.938Z,101175.56
2022-09-12T01:09:21.871Z,101177.56
2022-09-12T01:11:50.394Z,101180.72
2022-09-12T01:14:18.902Z,101175.50
2022-09-12T01:16:47.284Z,101181.09
2022-09-12T01:19:39.631Z,101176.75
2022-09-12T01:22:25.112Z,101179.78
2022-09-12T01:25:04.130Z,101173.41
2022-09-12T01:27:57.875Z,101168.88
2022-09-12T01:30:52.939Z,101174.41
2022-09-12T01:33:22.545Z,101163.09
2022-09-12T01:36:27.665Z,101170.94
2022-09-12T01:39:06.045Z,101164.38
2022-09-12T01:42:10.342Z,101157.09
2022-09-12T01:44:40.100Z,101159.56
2022-09-12T01:47:17.234Z,101159.25
2022-09-12T01:50:05.186Z,101157.81
2022-09-12T01:52:32.300Z,101155.75
2022-09-12T01:55:09.742Z,101157.53
2022-09-12T01:57:52.859Z,101156.16
2022-09-12T02:00:20.373Z,101157.28
2022-09-12T02:03:19.310Z,101157.28
2022-09-12T02:05:55.651Z,101154.09
2022-09-12T02:09:06.835Z,101161.78
2022-09-12T02:11:38.779Z,101148.16
2022-09-12T02:14:16.640Z,101150.34
2022-09-12T02:16:48.959Z,101150.47
2022-09-12T02:19:27.305Z,101155.56
2022-09-12T02:21:57.138Z,101155.56
2022-09-12T02:24:30.165Z,101151.25
2022-09-12T02:27:14.062Z,101146.19
2022-09-12T02:29:41.640Z,101151.44
2022-09-12T02:32:27.761Z,101141.47
2022-09-12T02:35:13.699Z,101140.31
2022-09-12T02:37:46.390Z,101142.91
2022-09-12T02:40:14.045Z,101142.72
2022-09-12T02:42:40.819Z,101141.88
2022-09-12T02:45:08.178Z,101143.53
2022-09-12T02:47:42.183Z,101143.69
2022-09-12T02:50:09.232Z,101138.38
2022-09-12T02:52:36.771Z,101138.53
2022-09-12T02:55:06.132Z,101146.25
2022-09-12T02:57:33.077Z,101135.25
2022-09-12T03:00:01.941Z,101132.41
2022-09-12T03:02:34.533Z,101144.56
2022-09-12T03:05:08.428Z,101132.69
2022-09-12T03:07:54.240Z,101144.91
2022-09-12T03:10:39.563Z,101146.44
2022-09-12T03:13:15.092Z,101143.16
2022-09-12T03:15:58.532Z,101145.31
2022-09-12T03:19:03.826Z,101138.69
2022-09-12T03:21:44.742Z,101140.25
2022-09-12T03:24:17.364Z,101145.13
2022-09-12T03:26:58.882Z,101138.44
2022-09-12T03:29:28.026Z,101137.78
2022-09-12T03:31:56.968Z,101138.44
2022-09-12T03:34:25.753Z,101147.28
2022-09-12T03:36:52.850Z,101144.19
2022-09-12T03:39:20.423Z,101149.72
2022-09-12T03:41:46.976Z,101151.94
2022-09-12T03:44:13.559Z,101155.75
2022-09-12T03:46:40.102Z,101157.47
2022-09-12T03:49:06.698Z,101155.47
2022-09-12T03:51:33.327Z,101152.47
2022-09-12T03:53:59.970Z,101157.59
2022-09-12T03:56:26.547Z,101156.59
2022-09-12T03:58:53.054Z,101152.03
2022-09-12T04:01:20.647Z,101156.00
2022-09-12T04:03:49.965Z,101166.50
2022-09-12T04:06:19.979Z,101164.34
2022-09-12T04:08:52.097Z,101167.28
2022-09-12T04:11:20.141Z,101167.13
2022-09-12T04:13:47.246Z,101172.13
2022-09-12T04:16:15.631Z,101160.75
2022-09-12T04:18:42.562Z,101166.88
2022-09-12T04:21:12.593Z,101169.53
2022-09-12T04:23:39.372Z,101175.72
2022-09-12T04:26:06.735Z,101169.88
2022-09-12T04:28:35.115Z,101171.22
2022-09-12T04:31:23.549Z,101168.25
2022-09-12T04:33:55.404Z,101178.25
2022-09-12T04:36:23.442Z,101174.34
2022-09-12T04:38:50.449Z,101176.84
2022-09-12T04:41:32.040Z,101174.75
2022-09-12T04:44:02.348Z,101174.56
2022-09-12T04:46:31.950Z,101178.94
2022-09-12T04:48:58.789Z,101184.22
2022-09-12T04:51:33.895Z,101187.91
2022-09-12T04:54:05.318Z,101191.63
2022-09-12T04:56:34.391Z,101198.09
2022-09-12T04:59:03.757Z,101199.38
2022-09-12T05:01:30.654Z,101196.84
2022-09-12T05:03:59.857Z,101201.81
2022-09-12T05:06:30.216Z,101200.72
2022-09-12T05:08:58.511Z,101201.00
2022-09-12T05:11:41.168Z,101201.16
2022-09-12T05:14:13.883Z,101196.97
2022-09-12T05:16:41.197Z,101192.91
2022-09-12T05:19:07.909Z,101202.97
2022-09-12T05:21:34.457Z,101204.59
2022-09-12T05:24:01.182Z,101209.88
2022-09-12T05:26:28.027Z,101210.13
2022-09-12T05:28:55.073Z,101217.66
2022-09-12T05:31:27.179Z,101217.81
2022-09-12T05:33:54.559Z,101216.59
2022-09-12T05:36:31.476Z,101227.06
2022-09-12T05:39:00.155Z,101224.31
2022-09-12T05:41:32.954Z,101232.41
2022-09-12T05:44:02.468Z,101236.59
2022-09-12T05:46:31.870Z,101230.91
2022-09-12T05:49:03.960Z,101237.09
2022-09-12T05:51:34.560Z,101239.94
2022-09-12T05:54:03.352Z,101234.81
2022-09-12T05:56:33.229Z,101230.41
2022-09-12T05:59:05.656Z,101233.91
2022-09-12T06:01:33.832Z,101238.75
2022-09-12T06:04:04.442Z,101239.03
2022-09-12T06:06:32.571Z,101241.75
2022-09-12T06:09:02.008Z,101244.09
2022-09-12T06:11:31.235Z,101241.75
2022-09-12T06:13:59.043Z,101244.06
2022-09-12T06:16:29.657Z,101241.56
2022-09-12T06:18:58.292Z,101251.25
2022-09-12T06:21:26.767Z,101242.97
2022-09-12T06:23:54.810Z,101241.00
2022-09-12T06:26:23.558Z,101238.84
2022-09-12T06:28:50.699Z,101245.47
2022-09-12T06:31:20.548Z,101237.31
2022-09-12T06:33:51.121Z,101241.41
2022-09-12T06:36:21.190Z,101236.69
2022-09-12T06:38:49.479Z,101231.91
2022-09-12T06:41:16.120Z,101227.41
2022-09-12T06:43:43.210Z,101223.56
2022-09-12T06:46:11.164Z,101224.28
2022-09-12T06:48:41.771Z,101230.13
2022-09-12T06:51:15.070Z,101221.41
2022-09-12T06:53:43.078Z,101224.66
2022-09-12T06:56:12.791Z,101219.31
2022-09-12T06:58:40.597Z,101226.00
2022-09-12T07:01:16.716Z,101224.09
2022-09-12T07:03:50.397Z,101223.03
2022-09-12T07:06:18.952Z,101220.34
2022-09-12T07:08:45.959Z,101210.88
2022-09-12T07:11:15.908Z,101209.75
2022-09-12T07:13:44.286Z,101211.66
2022-09-12T07:16:15.957Z,101209.56
2022-09-12T07:18:50.122Z,101219.41
2022-09-12T07:21:16.706Z,101214.06
2022-09-12T07:23:45.724Z,101211.09
2022-09-12T07:26:14.048Z,101209.00
2022-09-12T07:28:41.116Z,101205.13
2022-09-12T07:31:09.947Z,101197.69
2022-09-12T07:33:37.975Z,101208.84
2022-09-12T07:36:06.913Z,101202.50
2022-09-12T07:38:33.497Z,101197.97
2022-09-12T07:41:01.686Z,101203.97
2022-09-12T07:43:28.305Z,101205.44
2022-09-12T07:45:58.992Z,101200.53
2022-09-12T07:48:25.628Z,101205.03
2022-09-12T07:51:04.106Z,101206.06
2022-09-12T07:53:36.978Z,101211.63
2022-09-12T07:56:05.586Z,101213.28
2022-09-12T07:58:33.989Z,101209.53
2022-09-12T08:01:14.288Z,101219.84
2022-09-12T08:03:42.853Z,101225.81
2022-09-12T08:06:15.404Z,101224.72
2022-09-12T08:08:43.001Z,101232.25
2022-09-12T08:11:12.556Z,101233.34
2022-09-12T08:13:40.724Z,101230.88
2022-09-12T08:16:16.007Z,101236.41
2022-09-12T08:18:42.626Z,101225.84
2022-09-12T08:21:17.808Z,101232.22
2022-09-12T08:23:45.929Z,101223.50
2022-09-12T08:26:13.493Z,101222.41
2022-09-12T08:28:41.091Z,101218.78
2022-09-12T08:31:11.130Z,101223.47
2022-09-12T08:33:38.535Z,101220.69
2022-09-12T08:36:14.873Z,101226.69
2022-09-12T08:38:43.883Z,101225.19
2022-09-12T08:41:35.297Z,101229.63
2022-09-12T08:44:19.829Z,101224.78
2022-09-12T08:47:08.262Z,101231.22
2022-09-12T08:49:41.886Z,101223.69
2022-09-12T08:52:17.137Z,101225.75
2022-09-12T08:54:47.648Z,101224.41
2022-09-12T08:57:15.553Z,101227.59
2022-09-12T08:59:44.885Z,101226.09
2022-09-12T09:02:36.363Z,101223.56
2022-09-12T09:05:21.623Z,101225.09
2022-09-12T09:08:06.825Z,101227.72
2022-09-12T09:10:54.139Z,101223.81
2022-09-12T09:13:48.497Z,101225.56
2022-09-12T09:16:34.970Z,101218.66
2022-09-12T09:19:06.586Z,101217.94
2022-09-12T09:21:41.292Z,101215.19
2022-09-12T09:24:16.832Z,101220.38
2022-09-12T09:26:53.183Z,101208.53
2022-09-12T09:29:26.821Z,101223.69
2022-09-12T09:31:56.004Z,101215.81
2022-09-12T09:34:26.096Z,101212.19
2022-09-12T09:37:19.240Z,101212.19
2022-09-12T09:40:08.411Z,101213.59
2022-09-12T09:42:54.179Z,101203.31
2022-09-12T09:45:24.403Z,101213.47
2022-09-12T09:48:13.632Z,101214.06
2022-09-12T09:50:40.604Z,101211.66
2022-09-12T09:53:15.016Z,101211.19
2022-09-12T09:55:43.990Z,101200.66
2022-09-12T09:58:10.792Z,101196.47
2022-09-12T10:00:39.295Z,101200.50
2022-09-12T10:03:15.779Z,101196.34
2022-09-12T10:06:06.437Z,101197.44
2022-09-12T10:08:35.801Z,101198.47
2022-09-12T10:11:04.489Z,101194.25
2022-09-12T10:14:01.380Z,101195.59
2022-09-12T10:16:30.582Z,101189.09
2022-09-12T10:18:59.292Z,101190.31
2022-09-12T10:21:47.589Z,101179.97
2022-09-12T10:24:30.922Z,101187.28
2022-09-12T10:27:12.351Z,101181.78
2022-09-12T10:29:50.160Z,101180.69
2022-09-12T10:32:30.624Z,101180.31
2022-09-12T10:35:01.734Z,101181.72
2022-09-12T10:37:39.541Z,101168.22
2022-09-12T10:40:20.507Z,101176.06
2022-09-12T10:42:53.582Z,101173.47
2022-09-12T10:45:32.350Z,101167.69
2022-09-12T10:48:06.837Z,101167.88
2022-09-12T10:50:42.343Z,101161.41
2022-09-12T10:53:29.976Z,101169.94
2022-09-12T10:56:10.471Z,101162.38
2022-09-12T10:59:19.419Z,101160.78
2022-09-12T11:01:59.967Z,101155.34
2022-09-12T11:04:58.192Z,101153.88
2022-09-12T11:07:43.900Z,101158.34
2022-09-12T11:10:44.300Z,101152.31
2022-09-12T11:13:47.103Z,101152.91
2022-09-12T11:16:25.800Z,101150.81
2022-09-12T11:19:11.127Z,101148.66
2022-09-12T11:22:08.801Z,101151.25
2022-09-12T11:24:48.967Z,101138.69
2022-09-12T11:27:23.772Z,101152.31
2022-09-12T11:30:09.383Z,101150.06
2022-09-12T11:32:41.866Z,101151.75
2022-09-12T11:35:26.054Z,101141.75
2022-09-12T11:38:30.568Z,101141.22
2022-09-12T11:41:14.210Z,101138.88
2022-09-12T11:43:43.285Z,101134.16
2022-09-12T11:46:18.240Z,101124.13
2022-09-12T11:49:06.739Z,101125.56
2022-09-12T11:51:43.322Z,101123.00
2022-09-12T11:54:19.790Z,101124.09
2022-09-12T11:56:48.759Z,101125.97
2022-09-12T11:59:32.181Z,101123.75
2022-09-12T12:02:00.835Z,101121.66
2022-09-12T12:04:39.661Z,101125.75
2022-09-12T12:07:11.993Z,101121.78
2022-09-12T12:09:49.254Z,101121.13
2022-09-12T12:12:22.583Z,101124.53
2022-09-12T12:14:52.197Z,101120.44
2022-09-12T12:17:24.256Z,101114.41
2022-09-12T12:20:05.467Z,101112.19
2022-09-12T12:22:33.767Z,101111.22
2022-09-12T12:25:07.281Z,101108.78
2022-09-12T12:27:52.406Z,101106.38
2022-09-12T12:30:31.277Z,101097.06
2022-09-12T12:33:13.311Z,101100.56
2022-09-12T12:35:41.972Z,101093.03
2022-09-12T12:38:32.464Z,101091.84
2022-09-12T12:41:17.218Z,101089.22
2022-09-12T12:43:46.068Z,101089.66
2022-09-12T12:46:14.981Z,101082.09
2022-09-12T12:49:02.422Z,101079.66
2022-09-12T12:51:36.967Z,101072.59
2022-09-12T12:54:39.845Z,101072.03
2022-09-12T12:57:18.780Z,101077.66
2022-09-12T13:00:08.865Z,101070.78
2022-09-12T13:03:01.293Z,101068.16
2022-09-12T13:05:30.664Z,101071.19
2022-09-12T13:08:10.638Z,101077.03
2022-09-12T13:10:38.150Z,101063.56
2022-09-12T13:13:09.356Z,101059.88
2022-09-12T13:15:39.480Z,101058.25
2022-09-12T13:18:11.427Z,101053.75
2022-09-12T13:21:04.540Z,101057.47
2022-09-12T13:23:32.717Z,101046.06
2022-09-12T13:26:01.174Z,101043.28
2022-09-12T13:28:31.504Z,101045.31
2022-09-12T13:31:17.029Z,101031.81
2022-09-12T13:33:48.491Z,101033.16
2022-09-12T13:36:27.056Z,101033.84
2022-09-12T13:39:02.429Z,101033.78
2022-09-12T13:41:37.943Z,101028.41
2022-09-12T13:44:09.770Z,101020.16
2022-09-12T13:46:36.353Z,101024.09
2022-09-12T13:49:21.212Z,101014.34
2022-09-12T13:52:15.199Z,101008.59
2022-09-12T13:54:45.776Z,101007.56
2022-09-12T13:57:30.556Z,101010.22
2022-09-12T13:59:58.940Z,101009.13
2022-09-12T14:02:28.793Z,101010.28
2022-09-12T14:05:09.272Z,101006.38
2022-09-12T14:07:45.550Z,101006.63
2022-09-12T14:10:20.044Z,101007.44
2022-09-12T14:12:50.815Z,101004.81
2022-09-12T14:15:24.505Z,100997.88
2022-09-12T14:18:01.402Z,101000.03
2022-09-12T14:20:36.291Z,100991.91
2022-09-12T14:23:33.177Z,100991.81
2022-09-12T14:26:05.720Z,100987.53
2022-09-12T14:28:33.915Z,100988.31
2022-09-12T14:31:06.705Z,100979.22
2022-09-12T14:33:55.982Z,100981.63
2022-09-12T14:36:57.222Z,100985.09
2022-09-12T14:39:26.373Z,100975.88
2022-09-12T14:42:03.532Z,100967.50
2022-09-12T14:44:31.227Z,100977.69
2022-09-12T14:47:12.222Z,100969.06
2022-09-12T14:49:38.870Z,100967.47
2022-09-12T14:52:15.796Z,100972.34
2022-09-12T14:54:44.381Z,100959.91
2022-09-12T14:57:39.461Z,100959.75
2022-09-12T15:00:17.855Z,100957.00
2022-09-12T15:02:44.938Z,100955.28
2022-09-12T15:05:11.455Z,100954.63
2022-09-12T15:08:00.345Z,100948.22
2022-09-12T15:10:45.192Z,100946.09
2022-09-12T15:13:16.070Z,100957.59
2022-09-12T15:15:45.930Z,100949.66
2022-09-12T15:18:13.925Z,100957.03
2022-09-12T15:20:42.989Z,100952.75
2022-09-12T15:23:20.789Z,100934.47
2022-09-12T15:25:47.898Z,100945.00
2022-09-12T15:28:20.471Z,100947.59
2022-09-12T15:30:51.976Z,100947.31
2022-09-12T15:33:20.967Z,100942.53
2022-09-12T15:35:47.562Z,100940.88
2022-09-12T15:38:14.412Z,100941.69
2022-09-12T15:40:41.114Z,100942.16
2022-09-12T15:43:07.953Z,100944.00
2022-09-12T15:45:35.331Z,100942.72
2022-09-12T15:48:03.381Z,100949.22
2022-09-12T15:50:30.759Z,100939.69
2022-09-12T15:52:57.754Z,100935.75
2022-09-12T15:55:28.100Z,100932.69
2022-09-12T15:57:55.131Z,100937.19
2022-09-12T16:00:21.999Z,100937.50
2022-09-12T16:02:51.283Z,100934.53
2022-09-12T16:05:26.416Z,100929.16
2022-09-12T16:07:54.874Z,100939.56
2022-09-12T16:10:24.881Z,100932.03
2022-09-12T16:12:51.735Z,100924.94
2022-09-12T16:15:23.089Z,100922.38
2022-09-12T16:17:50.120Z,100924.84
2022-09-12T16:20:17.275Z,100919.97
2022-09-12T16:22:43.925Z,100932.47
2022-09-12T16:25:10.737Z,100923.59
2022-09-12T16:27:37.776Z,100921.66
2022-09-12T16:30:07.157Z,100926.06
2022-09-12T16:32:33.785Z,100923.25
2022-09-12T16:35:00.590Z,100921.78
2022-09-12T16:37:27.184Z,100916.75
2022-09-12T16:39:54.124Z,100921.03
2022-09-12T16:42:20.702Z,100918.59
2022-09-12T16:44:47.367Z,100923.25
2022-09-12T16:47:14.985Z,100921.03
2022-09-12T16:49:41.540Z,100922.41
2022-09-12T16:52:08.370Z,100926.44
2022-09-12T16:54:34.994Z,100926.34
2022-09-12T16:57:01.698Z,100922.78
2022-09-12T16:59:28.300Z,100929.81
2022-09-12T17:01:55.163Z,100924.16
2022-09-12T17:04:23.690Z,100920.16
2022-09-12T17:06:51.665Z,100928.78
2022-09-12T17:09:18.766Z,100929.44
2022-09-12T17:11:47.518Z,100929.97
2022-09-12T17:14:14.335Z,100935.38
2022-09-12T17:16:49.285Z,100937.97
2022-09-12T17:19:22.159Z,100943.88
2022-09-12T17:21:51.540Z,100935.63
2022-09-12T17:24:18.415Z,100935.09
2022-09-12T17:26:45.999Z,100941.91
2022-09-12T17:29:14.063Z,100934.22
2022-09-12T17:31:41.670Z,100932.97
2022-09-12T17:34:09.190Z,100939.53
2022-09-12T17:36:37.310Z,100933.66
2022-09-12T17:39:04.467Z,100934.66
2022-09-12T17:41:31.958Z,100931.72
2022-09-12T17:44:00.200Z,100938.88
2022-09-12T17:46:34.940Z,100938.25
2022-09-12T17:49:05.151Z,100945.03
2022-09-12T17:51:32.380Z,100939.88
2022-09-12T17:54:01.498Z,100944.28
2022-09-12T17:56:30.855Z,100943.75
2022-09-12T17:58:58.702Z,100948.16
2022-09-12T18:01:46.451Z,100960.78
2022-09-12T18:04:13.391Z,100956.72
2022-09-12T18:06:40.916Z,100952.84
2022-09-12T18:09:09.746Z,100956.50
2022-09-12T18:11:36.664Z,100954.28
2022-09-12T18:14:03.402Z,100964.06
2022-09-12T18:16:31.545Z,100964.81
2022-09-12T18:19:01.574Z,100964.81
2022-09-12T18:21:29.214Z,100980.50
2022-09-12T18:23:59.805Z,100981.97
2022-09-12T18:26:28.661Z,100989.91
2022-09-12T18:28:56.023Z,100989.31
2022-09-12T18:31:25.785Z,100993.59
2022-09-12T18:33:53.037Z,100989.22
2022-09-12T18:36:21.044Z,100994.25
2022-09-12T18:38:48.720Z,100995.19
2022-09-12T18:41:18.392Z,101000.94
2022-09-12T18:43:46.243Z,100994.72
2022-09-12T18:46:15.529Z,101002.16
2022-09-12T18:48:42.763Z,101003.63
2022-09-12T18:51:15.165Z,100997.03
2022-09-12T18:53:42.991Z,101002.66
2022-09-12T18:56:13.547Z,101003.03
2022-09-12T18:58:42.726Z,101005.38
2022-09-12T19:01:17.869Z,101008.69
2022-09-12T19:03:45.806Z,101008.94
2022-09-12T19:06:17.849Z,101009.41
2022-09-12T19:08:45.250Z,101007.97
2022-09-12T19:11:12.845Z,101009.81
2022-09-12T19:13:42.418Z,101012.34
2022-09-12T19:16:12.110Z,101010.41
2022-09-12T19:18:39.972Z,101013.59
2022-09-12T19:21:10.724Z,101011.88
2022-09-12T19:23:37.974Z,101016.88
2022-09-12T19:26:07.697Z,101019.47
2022-09-12T19:28:35.025Z,101015.91
2022-09-12T19:31:05.589Z,101017.13
2022-09-12T19:33:32.260Z,101016.63
2022-09-12T19:36:17.546Z,101023.13
2022-09-12T19:38:53.778Z,101017.56
2022-09-12T19:41:20.565Z,101015.44
2022-09-12T19:43:47.433Z,101029.25
2022-09-12T19:46:18.703Z,101022.16
2022-09-12T19:48:46.386Z,101027.91
2022-09-12T19:51:14.158Z,101021.31
2022-09-12T19:53:42.310Z,101019.66
2022-09-12T19:56:10.463Z,101026.50
2022-09-12T19:58:39.096Z,101036.16
2022-09-12T20:01:10.303Z,101031.13
2022-09-12T20:03:41.151Z,101034.13
2022-09-12T20:06:10.088Z,101032.63
2022-09-12T20:08:38.046Z,101033.22
2022-09-12T20:11:04.759Z,101032.19
2022-09-12T20:13:31.355Z,101034.38
2022-09-12T20:16:07.328Z,101027.78
2022-09-12T20:18:34.593Z,101027.16
2022-09-12T20:21:14.742Z,101033.38
2022-09-12T20:23:41.503Z,101035.25
2022-09-12T20:26:09.570Z,101039.97
2022-09-12T20:28:37.316Z,101035.88
2022-09-12T20:31:11.760Z,101045.56
2022-09-12T20:33:41.707Z,101037.16
2022-09-12T20:36:13.975Z,101039.13
2022-09-12T20:38:41.938Z,101047.53
2022-09-12T20:41:10.143Z,101045.19
2022-09-12T20:43:38.716Z,101039.50
2022-09-12T20:46:13.831Z,101043.94
2022-09-12T20:48:43.216Z,101037.56
2022-09-12T20:51:11.627Z,101039.50
2022-09-12T20:53:41.019Z,101050.25
2022-09-12T20:56:10.327Z,101045.34
2022-09-12T20:58:41.680Z,101045.75
2022-09-12T21:01:13.260Z,101047.84
2022-09-12T21:03:46.391Z,101055.59
2022-09-12T21:06:17.210Z,101051.88
2022-09-12T21:08:44.763Z,101058.69
2022-09-12T21:11:11.524Z,101050.28
2022-09-12T21:13:38.349Z,101055.94
2022-09-12T21:16:12.002Z,101050.34
2022-09-12T21:18:38.831Z,101052.78
2022-09-12T21:21:05.994Z,101059.03
2022-09-12T21:23:33.673Z,101049.56
2022-09-12T21:26:02.139Z,101052.72
2022-09-12T21:28:29.594Z,101055.81
2022-09-12T21:30:56.707Z,101056.13
2022-09-12T21:33:25.541Z,101053.03
2022-09-12T21:35:53.331Z,101047.09
2022-09-12T21:38:21.510Z,101046.44
2022-09-12T21:40:48.356Z,101048.66
2022-09-12T21:43:15.409Z,101045.69
2022-09-12T21:45:42.205Z,101049.72
2022-09-12T21:48:08.783Z,101042.81
2022-09-12T21:50:35.526Z,101043.25
2022-09-12T21:53:02.278Z,101044.97
2022-09-12T21:55:29.206Z,101054.03
2022-09-12T21:57:55.865Z,101057.28
2022-09-12T22:00:23.021Z,101052.34
2022-09-12T22:02:49.942Z,101053.31
2022-09-12T22:05:17.382Z,101052.56
2022-09-12T22:07:44.564Z,101053.75
2022-09-12T22:10:11.300Z,101048.59
2022-09-12T22:12:38.702Z,101047.75
2022-09-12T22:15:35.958Z,101055.44
2022-09-12T22:17:54.447Z,101054.03
2022-09-12T22:20:21.101Z,101059.19
2022-09-12T22:23:06.282Z,101057.59
2022-09-12T22:25:32.979Z,101058.41
2022-09-12T22:27:59.848Z,101060.38
2022-09-12T22:30:27.402Z,101053.81
2022-09-12T22:32:54.076Z,101059.81
2022-09-12T22:35:21.082Z,101056.38
2022-09-12T22:37:49.816Z,101055.50
2022-09-12T22:40:16.759Z,101060.88
2022-09-12T22:42:44.534Z,101046.50
2022-09-12T22:45:11.482Z,101041.25
2022-09-12T22:47:38.595Z,101041.03
2022-09-12T22:50:06.039Z,101040.41
2022-09-12T22:52:32.667Z,101037.25
2022-09-12T22:54:59.458Z,101035.56
2022-09-12T22:57:27.209Z,101037.59
2022-09-12T22:59:53.764Z,101040.06
2022-09-12T23:02:20.495Z,101039.63
2022-09-12T23:04:47.127Z,101041.44
2022-09-12T23:07:13.802Z,101041.34
2022-09-12T23:09:40.461Z,101045.22
2022-09-12T23:12:07.289Z,101042.75
2022-09-12T23:14:34.301Z,101043.28
2022-09-12T23:17:01.039Z,101041.78
2022-09-12T23:19:27.602Z,101037.47
2022-09-12T23:21:55.989Z,101033.19
2022-09-12T23:24:22.808Z,101034.47
2022-09-12T23:26:51.287Z,101040.69
2022-09-12T23:29:18.159Z,101040.91
2022-09-12T23:31:44.897Z,101040.56
2022-09-12T23:34:12.864Z,101032.00
2022-09-12T23:36:39.466Z,101037.03
2022-09-12T23:39:06.261Z,101034.78
2022-09-12T23:41:32.900Z,101027.34
2022-09-12T23:43:59.657Z,101026.88
2022-09-12T23:46:26.445Z,101029.47
2022-09-12T23:48:55.869Z,101027.66
2022-09-12T23:51:22.791Z,101032.66
2022-09-12T23:53:50.242Z,101022.09
2022-09-12T23:56:17.017Z,101028.63
2022-09-12T23:58:43.844Z,101029.72
